SCCP weather

Callipulli Airport
Osorno, Los Lagos Region, Chile

Public forecast

Using degrees Celsius for public forecast. Weather courtesy of forecast.io.

METAR (pilot weather report)

Report is more than 2 hours old.

Closest report is Cañal Bajo Carlos - Hott Siebert Airport, 9.8 nm (18.1 km) W. Retrieved 2019/07/23 22:00 UTC (2 hours ago):

SCJO 232200Z 22004KT 9999 SCT030 08/03 Q1030

TAF (pilot weather forecast)

Forecast is more than 6 hours old.

Closest forecast is Cañal Bajo Carlos - Hott Siebert Airport, 9.8 nm (18.1 km) W. Retrieved 2019/07/23 12:33 UTC (12 hours ago):

TAF SCJO 231101Z 2312/2324 VRB02KT 0600 FG OVC002 TN00/2312Z TX10/2318Z BECMG 2313/2315 3000 BR BKN010 BECMG 2315/2317 17010KT 9999 NSW BKN025